createdAt,value
2023-04-18T00:00:12.057Z,32.25
2023-04-18T00:02:40.808Z,30.58
2023-04-18T00:05:10.912Z,29.00
2023-04-18T00:07:39.717Z,29.13
2023-04-18T00:10:09.699Z,28.60
2023-04-18T00:12:37.977Z,30.73
2023-04-18T00:15:09.730Z,32.95
2023-04-18T00:17:39.474Z,28.60
2023-04-18T00:20:10.660Z,31.90
2023-04-18T00:22:42.569Z,26.92
2023-04-18T00:25:11.940Z,28.05
2023-04-18T00:27:40.576Z,28.70
2023-04-18T00:30:11.778Z,23.58
2023-04-18T00:32:40.440Z,30.20
2023-04-18T00:35:09.650Z,28.85
2023-04-18T00:37:38.231Z,24.77
2023-04-18T00:40:07.963Z,30.80
2023-04-18T00:42:36.357Z,29.00
2023-04-18T00:45:05.370Z,33.30
2023-04-18T00:47:35.060Z,28.08
2023-04-18T00:50:03.439Z,26.83
2023-04-18T00:52:33.683Z,26.83
2023-04-18T00:55:02.091Z,27.50
2023-04-18T00:57:30.927Z,32.25
2023-04-18T01:00:00.733Z,26.88
2023-04-18T01:02:31.299Z,30.77
2023-04-18T01:05:01.096Z,25.25
2023-04-18T01:07:31.008Z,26.75
2023-04-18T01:10:00.062Z,28.17
2023-04-18T01:12:28.321Z,29.63
2023-04-18T01:14:57.214Z,30.83
2023-04-18T01:17:28.281Z,30.20
2023-04-18T01:19:56.862Z,31.38
2023-04-18T01:22:26.833Z,31.40
2023-04-18T01:24:57.007Z,32.47
2023-04-18T01:27:25.289Z,30.42
2023-04-18T01:29:54.739Z,31.27
2023-04-18T01:32:25.751Z,33.15
2023-04-18T01:34:54.119Z,35.42
2023-04-18T01:37:22.315Z,34.72
2023-04-18T01:39:50.538Z,34.53
2023-04-18T01:42:21.763Z,37.78
2023-04-18T01:44:49.967Z,33.92
2023-04-18T01:47:18.245Z,31.08
2023-04-18T01:49:48.267Z,36.67
2023-04-18T01:52:18.214Z,34.65
2023-04-18T01:54:46.466Z,31.88
2023-04-18T01:57:15.167Z,36.95
2023-04-18T01:59:44.852Z,35.35
2023-04-18T02:02:13.239Z,33.05
2023-04-18T02:04:41.570Z,33.20
2023-04-18T02:07:13.613Z,31.15
2023-04-18T02:09:41.843Z,29.98
2023-04-18T02:12:12.934Z,33.35
2023-04-18T02:14:41.255Z,32.13
2023-04-18T02:17:10.874Z,34.92
2023-04-18T02:19:39.291Z,35.05
2023-04-18T02:22:08.692Z,33.67
2023-04-18T02:24:37.044Z,35.58
2023-04-18T02:27:05.282Z,33.78
2023-04-18T02:29:33.512Z,36.15
2023-04-18T02:32:01.820Z,33.65
2023-04-18T02:34:33.177Z,31.98
2023-04-18T02:37:01.535Z,37.45
2023-04-18T02:39:29.760Z,30.02
2023-04-18T02:41:58.132Z,31.77
2023-04-18T02:44:26.760Z,33.55
2023-04-18T02:46:56.116Z,33.97
2023-04-18T02:49:24.529Z,35.13
2023-04-18T02:51:57.087Z,33.97
2023-04-18T02:54:25.728Z,33.80
2023-04-18T02:57:03.453Z,32.88
2023-04-18T02:59:55.084Z,32.58
2023-04-18T03:02:42.087Z,30.92
2023-04-18T03:05:40.643Z,32.92
2023-04-18T03:08:10.864Z,32.40
2023-04-18T03:10:39.888Z,33.58
2023-04-18T03:13:08.645Z,34.15
2023-04-18T03:15:37.116Z,33.95
2023-04-18T03:18:07.227Z,35.28
2023-04-18T03:20:38.261Z,38.10
2023-04-18T03:23:10.139Z,31.17
2023-04-18T03:25:38.561Z,29.70
2023-04-18T03:28:07.023Z,31.08
2023-04-18T03:30:36.257Z,31.70
2023-04-18T03:33:06.377Z,28.80
2023-04-18T03:35:35.061Z,27.73
2023-04-18T03:38:03.345Z,29.80
2023-04-18T03:40:37.950Z,30.50
2023-04-18T03:43:13.260Z,30.35
2023-04-18T03:45:41.781Z,29.35
2023-04-18T03:48:10.023Z,30.20
2023-04-18T03:50:43.052Z,33.72
2023-04-18T03:53:12.231Z,36.30
2023-04-18T03:55:43.378Z,31.60
2023-04-18T03:58:13.827Z,32.47
2023-04-18T04:00:42.593Z,32.97
2023-04-18T04:03:12.647Z,31.58
2023-04-18T04:05:41.728Z,32.28
2023-04-18T04:08:10.007Z,28.88
2023-04-18T04:10:38.123Z,29.08
2023-04-18T04:13:07.725Z,34.20
2023-04-18T04:15:39.308Z,33.65
2023-04-18T04:18:10.574Z,29.98
2023-04-18T04:20:43.285Z,31.75
2023-04-18T04:23:15.414Z,35.35
2023-04-18T04:25:46.736Z,31.35
2023-04-18T04:28:36.691Z,31.67
2023-04-18T04:31:08.313Z,30.40
2023-04-18T04:33:38.983Z,33.40
2023-04-18T04:36:16.160Z,32.35
2023-04-18T04:38:47.222Z,29.52
2023-04-18T04:41:15.545Z,32.05
2023-04-18T04:43:46.570Z,34.53
2023-04-18T04:46:19.928Z,36.25
2023-04-18T04:48:51.357Z,34.63
2023-04-18T04:51:20.313Z,32.13
2023-04-18T04:53:48.586Z,31.25
2023-04-18T04:56:16.940Z,35.40
2023-04-18T04:58:47.226Z,31.65
2023-04-18T05:01:30.956Z,31.70
2023-04-18T05:04:00.358Z,28.70
2023-04-18T05:06:29.099Z,29.20
2023-04-18T05:08:59.555Z,28.48
2023-04-18T05:12:18.583Z,27.83
2023-04-18T05:14:48.304Z,30.27
2023-04-18T05:17:16.679Z,31.33
2023-04-18T05:19:45.055Z,37.00
2023-04-18T05:22:13.507Z,31.95
2023-04-18T05:24:41.883Z,41.47
2023-04-18T05:27:10.487Z,29.80
2023-04-18T05:29:38.765Z,30.33
2023-04-18T05:32:09.125Z,30.42
2023-04-18T05:34:38.706Z,34.63
2023-04-18T05:37:07.198Z,38.03
2023-04-18T05:39:35.413Z,41.45
2023-04-18T05:42:03.815Z,35.40
2023-04-18T05:44:32.091Z,34.88
2023-04-18T05:47:00.542Z,33.53
2023-04-18T05:49:30.265Z,40.10
2023-04-18T05:51:58.638Z,38.05
2023-04-18T05:54:27.437Z,31.42
2023-04-18T05:56:56.944Z,36.83
2023-04-18T05:59:26.781Z,35.05
2023-04-18T06:01:55.353Z,44.42
2023-04-18T06:04:26.255Z,38.15
2023-04-18T06:06:56.278Z,39.40
2023-04-18T06:09:24.523Z,33.33
2023-04-18T06:11:52.868Z,31.45
2023-04-18T06:14:21.103Z,29.77
2023-04-18T06:16:49.369Z,29.75
2023-04-18T06:19:17.608Z,32.60
2023-04-18T06:21:46.120Z,35.40
2023-04-18T06:24:15.927Z,32.83
2023-04-18T06:26:44.603Z,29.48
2023-04-18T06:29:13.194Z,35.72
2023-04-18T06:31:53.407Z,36.55
2023-04-18T06:34:22.044Z,33.40
2023-04-18T06:36:50.394Z,28.25
2023-04-18T06:39:19.989Z,30.48
2023-04-18T06:41:49.480Z,27.08
2023-04-18T06:44:28.826Z,29.15
2023-04-18T06:46:57.341Z,33.22
2023-04-18T06:49:26.719Z,30.50
2023-04-18T06:51:55.265Z,34.30
2023-04-18T06:54:25.073Z,32.10
2023-04-18T06:56:54.507Z,27.02
2023-04-18T06:59:23.330Z,28.38
2023-04-18T07:01:52.135Z,33.30
2023-04-18T07:04:20.657Z,27.15
2023-04-18T07:06:49.037Z,29.10
2023-04-18T07:09:17.401Z,27.52
2023-04-18T07:11:47.184Z,28.77
2023-04-18T07:14:15.729Z,24.77
2023-04-18T07:16:44.179Z,26.70
2023-04-18T07:19:12.447Z,26.63
2023-04-18T07:21:42.913Z,32.28
2023-04-18T07:24:11.848Z,28.25
2023-04-18T07:26:40.695Z,28.65
2023-04-18T07:29:10.501Z,27.40
2023-04-18T07:31:38.946Z,33.15
2023-04-18T07:34:07.464Z,26.13
2023-04-18T07:36:43.318Z,25.80
2023-04-18T07:39:14.600Z,27.48
2023-04-18T07:42:08.125Z,26.77
2023-04-18T07:44:45.022Z,30.77
2023-04-18T07:47:14.284Z,25.30
2023-04-18T07:49:44.265Z,35.40
2023-04-18T07:52:12.699Z,32.08
2023-04-18T07:54:42.433Z,30.02
2023-04-18T07:57:14.047Z,27.85
2023-04-18T07:59:45.930Z,26.38
2023-04-18T08:02:14.283Z,28.85
2023-04-18T08:04:42.935Z,30.98
2023-04-18T08:07:19.620Z,28.30
2023-04-18T08:09:53.080Z,27.02
2023-04-18T08:12:21.490Z,25.45
2023-04-18T08:14:57.154Z,24.08
2023-04-18T08:17:43.905Z,22.85
2023-04-18T08:20:13.926Z,27.15
2023-04-18T08:23:05.193Z,23.02
2023-04-18T08:25:54.257Z,23.25
2023-04-18T08:28:26.285Z,20.20
2023-04-18T08:30:56.541Z,17.55
2023-04-18T08:33:29.092Z,16.92
2023-04-18T08:35:57.450Z,21.63
2023-04-18T08:38:26.096Z,20.80
2023-04-18T08:40:54.316Z,23.90
2023-04-18T08:43:23.661Z,23.65
2023-04-18T08:46:00.755Z,19.73
2023-04-18T08:48:29.387Z,23.23
2023-04-18T08:51:04.260Z,18.35
2023-04-18T08:53:35.233Z,20.30
2023-04-18T08:56:05.450Z,19.27
2023-04-18T08:58:34.794Z,18.15
2023-04-18T09:01:04.920Z,16.67
2023-04-18T09:03:40.938Z,19.13
2023-04-18T09:06:12.558Z,18.80
2023-04-18T09:08:45.705Z,22.77
2023-04-18T09:11:25.925Z,19.70
2023-04-18T09:13:56.262Z,18.73
2023-04-18T09:16:28.165Z,20.52
2023-04-18T09:19:15.067Z,16.55
2023-04-18T09:21:46.285Z,17.88
2023-04-18T09:24:20.835Z,20.83
2023-04-18T09:26:50.763Z,16.40
2023-04-18T09:29:22.490Z,15.88
2023-04-18T09:32:02.857Z,14.10
2023-04-18T09:34:33.935Z,15.68
2023-04-18T09:37:10.642Z,18.88
2023-04-18T09:39:42.123Z,15.68
2023-04-18T09:42:11.110Z,16.35
2023-04-18T09:44:39.910Z,13.60
2023-04-18T09:47:12.326Z,16.33
2023-04-18T09:49:40.724Z,21.02
2023-04-18T09:52:09.487Z,12.02
2023-04-18T09:54:39.582Z,13.50
2023-04-18T09:57:11.926Z,15.52
2023-04-18T09:59:47.689Z,14.85
2023-04-18T10:02:26.078Z,19.13
2023-04-18T10:04:56.884Z,15.10
2023-04-18T10:07:27.003Z,15.05
2023-04-18T10:09:55.352Z,15.77
2023-04-18T10:12:26.989Z,15.02
2023-04-18T10:14:56.418Z,14.38
2023-04-18T10:17:29.540Z,15.82
2023-04-18T10:20:10.216Z,23.50
2023-04-18T10:22:38.534Z,15.80
2023-04-18T10:25:08.318Z,15.98
2023-04-18T10:28:03.502Z,16.83
2023-04-18T10:31:04.092Z,17.25
2023-04-18T10:33:42.531Z,17.90
2023-04-18T10:36:20.410Z,16.30
2023-04-18T10:38:51.623Z,13.02
2023-04-18T10:41:23.535Z,12.45
2023-04-18T10:44:19.506Z,14.85
2023-04-18T10:47:22.889Z,16.35
2023-04-18T10:50:05.911Z,15.65
2023-04-18T10:52:35.681Z,15.65
2023-04-18T10:55:21.067Z,13.13
2023-04-18T10:57:51.649Z,15.00
2023-04-18T11:00:24.385Z,13.07
2023-04-18T11:02:56.373Z,12.65
2023-04-18T11:05:28.920Z,17.63
2023-04-18T11:07:57.145Z,12.15
2023-04-18T11:10:27.700Z,13.68
2023-04-18T11:12:57.327Z,12.43
2023-04-18T11:15:28.604Z,12.95
2023-04-18T11:18:01.068Z,15.10
2023-04-18T11:20:38.862Z,15.27
2023-04-18T11:23:19.771Z,15.07
2023-04-18T11:25:51.365Z,15.95
2023-04-18T11:28:22.017Z,19.73
2023-04-18T11:30:50.383Z,14.70
2023-04-18T11:33:18.841Z,13.07
2023-04-18T11:35:50.606Z,14.43
2023-04-18T11:38:55.655Z,16.15
2023-04-18T11:41:25.852Z,13.88
2023-04-18T11:43:57.925Z,13.77
2023-04-18T11:46:41.933Z,15.18
2023-04-18T11:49:27.021Z,14.18
2023-04-18T11:51:58.928Z,18.83
2023-04-18T11:54:45.927Z,34.45
2023-04-18T11:57:23.590Z,15.10
2023-04-18T11:59:56.637Z,16.33
2023-04-18T12:02:26.975Z,20.02
2023-04-18T12:04:58.583Z,14.23
2023-04-18T12:07:39.952Z,19.40
2023-04-18T12:10:10.771Z,16.80
2023-04-18T12:12:39.045Z,15.82
2023-04-18T12:15:15.088Z,14.55
2023-04-18T12:17:45.818Z,16.42
2023-04-18T12:20:16.016Z,14.30
2023-04-18T12:22:48.894Z,15.55
2023-04-18T12:25:27.125Z,18.10
2023-04-18T12:27:59.137Z,16.52
2023-04-18T12:30:30.034Z,17.02
2023-04-18T12:33:03.915Z,18.75
2023-04-18T12:35:33.865Z,18.60
2023-04-18T12:38:04.138Z,16.67
2023-04-18T12:40:32.388Z,27.55
2023-04-18T12:43:02.948Z,15.05
2023-04-18T12:45:32.097Z,17.67
2023-04-18T12:48:00.566Z,16.58
2023-04-18T12:50:28.964Z,19.73
2023-04-18T12:53:00.656Z,16.30
2023-04-18T12:55:30.593Z,18.27
2023-04-18T12:57:59.047Z,18.67
2023-04-18T13:00:33.210Z,14.20
2023-04-18T13:03:11.788Z,16.48
2023-04-18T13:05:41.567Z,17.17
2023-04-18T13:08:17.218Z,15.52
2023-04-18T13:10:48.404Z,17.48
2023-04-18T13:13:18.698Z,14.43
2023-04-18T13:15:48.756Z,13.68
2023-04-18T13:18:23.000Z,15.20
2023-04-18T13:20:53.907Z,15.48
2023-04-18T13:23:28.727Z,14.93
2023-04-18T13:25:59.478Z,15.90
2023-04-18T13:28:27.799Z,14.15
2023-04-18T13:31:31.370Z,17.65
2023-04-18T13:34:25.240Z,19.85
2023-04-18T13:37:18.844Z,16.23
2023-04-18T13:40:26.227Z,15.57
2023-04-18T13:43:05.705Z,14.82
2023-04-18T13:46:00.001Z,17.60
2023-04-18T13:48:41.431Z,16.13
2023-04-18T13:51:20.401Z,17.75
2023-04-18T13:54:36.719Z,13.70
2023-04-18T13:57:11.402Z,15.70
2023-04-18T13:59:42.145Z,16.55
2023-04-18T14:02:11.831Z,15.88
2023-04-18T14:04:41.165Z,16.58
2023-04-18T14:07:10.214Z,15.55
2023-04-18T14:09:39.822Z,14.27
2023-04-18T14:12:08.383Z,15.88
2023-04-18T14:14:39.778Z,12.85
2023-04-18T14:17:11.330Z,13.73
2023-04-18T14:19:40.005Z,14.10
2023-04-18T14:22:08.658Z,14.00
2023-04-18T14:24:37.259Z,16.55
2023-04-18T14:27:05.911Z,17.42
2023-04-18T14:29:34.251Z,16.05
2023-04-18T14:32:02.903Z,12.73
2023-04-18T14:34:34.332Z,17.25
2023-04-18T14:37:03.956Z,16.58
2023-04-18T14:39:33.442Z,16.55
2023-04-18T14:42:02.226Z,16.77
2023-04-18T14:44:31.691Z,15.38
2023-04-18T14:47:00.314Z,14.50
2023-04-18T14:49:29.262Z,19.02
2023-04-18T14:51:59.481Z,16.15
2023-04-18T14:54:28.200Z,17.35
2023-04-18T14:56:56.685Z,17.98
2023-04-18T14:59:28.136Z,16.15
2023-04-18T15:01:57.136Z,17.73
2023-04-18T15:04:26.226Z,17.20
2023-04-18T15:06:56.329Z,18.60
2023-04-18T15:09:26.185Z,19.60
2023-04-18T15:11:55.177Z,20.55
2023-04-18T15:14:23.541Z,20.67
2023-04-18T15:16:52.475Z,22.77
2023-04-18T15:19:21.752Z,19.15
2023-04-18T15:21:50.414Z,28.40
2023-04-18T15:24:21.648Z,25.85
2023-04-18T15:26:52.651Z,21.08
2023-04-18T15:29:21.311Z,18.63
2023-04-18T15:31:50.169Z,17.55
2023-04-18T15:34:20.445Z,18.40
2023-04-18T15:36:50.656Z,16.05
2023-04-18T15:39:23.537Z,16.88
2023-04-18T15:41:56.425Z,19.67
2023-04-18T15:44:28.466Z,16.63
2023-04-18T15:46:57.772Z,16.52
2023-04-18T15:49:29.731Z,14.50
2023-04-18T15:51:58.979Z,18.02
2023-04-18T15:54:28.318Z,18.05
2023-04-18T15:56:59.464Z,18.25
2023-04-18T15:59:28.163Z,13.80
2023-04-18T16:01:57.223Z,18.77
2023-04-18T16:04:29.131Z,15.30
2023-04-18T16:06:59.699Z,15.48
2023-04-18T16:09:31.859Z,13.85
2023-04-18T16:14:33.467Z,18.33
2023-04-18T16:17:03.082Z,17.33
2023-04-18T16:19:38.989Z,17.98
2023-04-18T16:22:08.705Z,15.25
2023-04-18T16:24:37.490Z,20.42
2023-04-18T16:27:07.905Z,14.85
2023-04-18T16:29:36.792Z,14.40
2023-04-18T16:32:08.702Z,16.77
2023-04-18T16:34:37.351Z,17.00
2023-04-18T16:37:06.282Z,15.15
2023-04-18T16:39:36.958Z,18.27
2023-04-18T16:42:08.483Z,18.60
2023-04-18T16:44:41.105Z,17.80
2023-04-18T16:47:10.983Z,15.38
2023-04-18T16:49:39.558Z,16.27
2023-04-18T16:52:08.152Z,18.92
2023-04-18T16:54:37.022Z,16.55
2023-04-18T16:57:07.241Z,14.40
2023-04-18T16:59:37.517Z,14.88
2023-04-18T17:02:06.297Z,13.65
2023-04-18T17:04:37.950Z,24.10
2023-04-18T17:07:06.681Z,15.33
2023-04-18T17:09:36.731Z,15.65
2023-04-18T17:12:07.799Z,21.75
2023-04-18T17:14:37.144Z,17.23
2023-04-18T17:17:05.841Z,14.63
2023-04-18T17:19:34.272Z,13.85
2023-04-18T17:22:05.815Z,14.82
2023-04-18T17:24:37.658Z,12.35
2023-04-18T17:27:07.773Z,13.85
2023-04-18T17:29:36.818Z,14.27
2023-04-18T17:32:07.790Z,14.15
2023-04-18T17:34:37.614Z,11.05
2023-04-18T17:37:08.170Z,14.73
2023-04-18T17:39:36.949Z,13.32
2023-04-18T17:42:08.173Z,11.60
2023-04-18T17:44:39.622Z,11.88
2023-04-18T17:47:08.257Z,11.80
2023-04-18T17:49:40.405Z,11.90
2023-04-18T17:52:09.473Z,11.98
2023-04-18T17:54:37.751Z,12.18
2023-04-18T17:57:09.727Z,12.57
2023-04-18T17:59:38.603Z,13.77
2023-04-18T18:02:08.284Z,14.07
2023-04-18T18:04:37.228Z,11.68
2023-04-18T18:07:07.973Z,12.30
2023-04-18T18:09:38.078Z,12.35
2023-04-18T18:12:12.221Z,11.25
2023-04-18T18:14:41.431Z,10.43
2023-04-18T18:17:12.508Z,11.65
2023-04-18T18:19:41.743Z,15.98
2023-04-18T18:22:10.565Z,10.02
2023-04-18T18:24:39.715Z,13.23
2023-04-18T18:27:10.159Z,14.88
2023-04-18T18:29:40.358Z,13.98
2023-04-18T18:32:14.064Z,13.50
2023-04-18T18:34:43.384Z,15.40
2023-04-18T18:37:12.518Z,14.50
2023-04-18T18:39:40.852Z,14.98
2023-04-18T18:42:10.555Z,15.48
2023-04-18T18:44:39.315Z,14.82
2023-04-18T18:47:08.215Z,16.52
2023-04-18T18:49:37.650Z,15.32
2023-04-18T18:52:06.460Z,16.65
2023-04-18T18:54:35.119Z,16.50
2023-04-18T18:57:03.766Z,18.02
2023-04-18T18:59:34.015Z,15.93
2023-04-18T19:02:02.602Z,17.92
2023-04-18T19:04:31.099Z,17.90
2023-04-18T19:07:01.392Z,17.60
2023-04-18T19:09:29.733Z,23.92
2023-04-18T19:12:00.776Z,18.92
2023-04-18T19:14:29.642Z,22.05
2023-04-18T19:16:59.479Z,22.13
2023-04-18T19:19:28.292Z,22.83
2023-04-18T19:21:57.862Z,27.40
2023-04-18T19:24:26.762Z,19.60
2023-04-18T19:26:57.023Z,22.52
2023-04-18T19:29:26.044Z,26.52
2023-04-18T19:31:54.507Z,23.33
2023-04-18T19:34:24.628Z,24.25
2023-04-18T19:36:53.313Z,24.35
2023-04-18T19:39:21.722Z,24.23
2023-04-18T19:41:50.808Z,24.67
2023-04-18T19:44:19.469Z,25.15
2023-04-18T19:46:47.841Z,26.85
2023-04-18T19:49:16.495Z,24.85
2023-04-18T19:51:46.907Z,23.42
2023-04-18T19:54:16.055Z,23.10
2023-04-18T19:56:46.103Z,27.08
2023-04-18T19:59:15.985Z,23.55
2023-04-18T20:01:47.869Z,24.73
2023-04-18T20:04:17.293Z,27.77
2023-04-18T20:06:50.270Z,25.83
2023-04-18T20:09:19.959Z,22.50
2023-04-18T20:11:49.062Z,21.25
2023-04-18T20:14:17.955Z,28.27
2023-04-18T20:16:47.471Z,21.85
2023-04-18T20:19:18.632Z,21.17
2023-04-18T20:21:48.508Z,23.30
2023-04-18T20:24:17.256Z,21.38
2023-04-18T20:26:45.868Z,21.65
2023-04-18T20:29:14.842Z,21.30
2023-04-18T20:31:43.620Z,23.15
2023-04-18T20:34:12.878Z,22.88
2023-04-18T20:36:44.738Z,16.58
2023-04-18T20:39:15.465Z,15.63
2023-04-18T20:41:50.781Z,19.03
2023-04-18T20:44:21.715Z,15.30
2023-04-18T20:46:50.573Z,14.80
2023-04-18T20:49:19.405Z,15.43
2023-04-18T20:51:48.152Z,18.83
2023-04-18T20:54:19.186Z,16.83
2023-04-18T20:56:47.781Z,14.80
2023-04-18T20:59:19.433Z,14.13
2023-04-18T21:01:51.133Z,13.60
2023-04-18T21:04:20.683Z,13.32
2023-04-18T21:06:49.466Z,16.40
2023-04-18T21:09:19.144Z,13.80
2023-04-18T21:11:47.927Z,13.30
2023-04-18T21:14:17.182Z,15.73
2023-04-18T21:16:47.077Z,15.82
2023-04-18T21:19:17.886Z,15.85
2023-04-18T21:21:48.389Z,15.93
2023-04-18T21:24:19.360Z,14.48
2023-04-18T21:26:49.106Z,16.15
2023-04-18T21:29:21.688Z,15.15
2023-04-18T21:31:51.606Z,13.88
2023-04-18T21:34:23.061Z,17.08
2023-04-18T21:36:51.647Z,14.52
2023-04-18T21:39:22.982Z,16.30
2023-04-18T21:41:52.203Z,12.77
2023-04-18T21:44:20.595Z,12.60
2023-04-18T21:46:49.564Z,14.13
2023-04-18T21:49:18.172Z,12.05
2023-04-18T21:51:49.034Z,11.25
2023-04-18T21:54:18.413Z,10.52
2023-04-18T21:56:48.723Z,10.18
2023-04-18T21:59:17.419Z,12.70
2023-04-18T22:01:46.421Z,11.90
2023-04-18T22:04:24.123Z,12.60
2023-04-18T22:06:54.051Z,15.48
2023-04-18T22:09:23.878Z,18.00
2023-04-18T22:11:56.707Z,19.30
2023-04-18T22:16:55.832Z,22.95
2023-04-18T22:19:24.976Z,28.85
2023-04-18T22:21:54.337Z,30.65
2023-04-18T22:24:23.097Z,29.92
2023-04-18T22:26:56.646Z,28.40
2023-04-18T22:29:25.432Z,27.05
2023-04-18T22:31:54.576Z,27.60
2023-04-18T22:34:25.062Z,25.05
2023-04-18T22:36:53.961Z,24.27
2023-04-18T22:39:23.868Z,26.33
2023-04-18T22:41:52.591Z,25.30
2023-04-18T22:44:24.923Z,23.23
2023-04-18T22:46:57.574Z,23.20
2023-04-18T22:51:56.947Z,25.05
2023-04-18T22:54:25.399Z,24.35
2023-04-18T22:56:54.247Z,31.90
2023-04-18T22:59:24.134Z,28.60
2023-04-18T23:01:53.247Z,25.65
2023-04-18T23:04:22.596Z,24.92
2023-04-18T23:06:51.456Z,26.38
2023-04-18T23:09:20.175Z,25.52
2023-04-18T23:11:50.437Z,25.50
2023-04-18T23:14:18.909Z,22.38
2023-04-18T23:16:48.640Z,22.38
2023-04-18T23:19:17.430Z,25.30
2023-04-18T23:21:51.543Z,21.73
2023-04-18T23:24:22.314Z,22.50
2023-04-18T23:26:54.036Z,25.55
2023-04-18T23:29:22.826Z,20.33
2023-04-18T23:31:55.230Z,23.55
2023-04-18T23:36:55.189Z,20.58
2023-04-18T23:39:23.823Z,20.23
2023-04-18T23:41:53.863Z,20.15
2023-04-18T23:44:25.804Z,19.02
2023-04-18T23:46:58.664Z,24.65
2023-04-18T23:49:30.699Z,19.55
2023-04-18T23:52:00.597Z,20.77
2023-04-18T23:54:37.983Z,20.55
2023-04-18T23:57:07.590Z,17.30
2023-04-18T23:59:36.296Z,18.20
